Time;durP1;ratioP1;P1;durP2;ratioP2;P2;SDS_P1;SDS_P2;PMS_P1;PMS_P2;Temp;Humidity;BMP_temperature;BMP_pressure;BME280_temperature;BME280_humidity;BME280_pressure;Samples;Min_cycle;Max_cycle;Signal;HPM_P1;HPM_P2
2023/04/22 00:00:37;;;;;;;3.75;1.70;;;5.60;99.90;;;;;;5115871;28;20035;-82
2023/04/22 00:03:03;;;;;;;3.17;1.60;;;5.50;99.90;;;;;;5081254;28;20103;-82
2023/04/22 00:05:29;;;;;;;2.90;1.70;;;5.50;99.90;;;;;;5094265;28;20189;-82
2023/04/22 00:07:54;;;;;;;3.67;1.85;;;5.50;99.90;;;;;;5077771;28;20504;-82
2023/04/22 00:10:20;;;;;;;3.60;1.90;;;5.50;99.90;;;;;;5084584;28;20051;-82
2023/04/22 00:12:46;;;;;;;4.40;1.50;;;5.40;99.90;;;;;;5078040;28;20036;-82
2023/04/22 00:15:11;;;;;;;3.53;1.70;;;5.50;99.90;;;;;;5097646;28;20081;-82
2023/04/22 00:17:37;;;;;;;3.20;1.80;;;5.50;99.90;;;;;;5098049;28;20036;-82
2023/04/22 00:20:03;;;;;;;2.60;1.40;;;5.50;99.90;;;;;;5116262;28;20036;-82
2023/04/22 00:22:29;;;;;;;3.47;1.67;;;5.50;99.90;;;;;;5064432;28;20043;-82
2023/04/22 00:24:55;;;;;;;4.22;2.03;;;5.50;99.90;;;;;;5081470;28;20495;-82
2023/04/22 00:27:20;;;;;;;4.70;2.95;;;5.50;99.90;;;;;;5097339;28;20043;-82
2023/04/22 00:29:47;;;;;;;5.53;2.80;;;5.50;99.90;;;;;;5084511;28;20055;-83
2023/04/22 00:32:13;;;;;;;4.55;2.28;;;5.50;99.90;;;;;;5115608;28;20115;-82
2023/04/22 00:34:38;;;;;;;3.85;2.25;;;5.50;99.90;;;;;;5080723;28;20092;-82
2023/04/22 00:37:04;;;;;;;4.30;1.83;;;5.40;99.90;;;;;;5097191;28;20032;-82
2023/04/22 00:39:30;;;;;;;4.93;1.98;;;5.50;99.90;;;;;;5097735;28;20401;-82
2023/04/22 00:41:56;;;;;;;3.75;2.10;;;5.50;99.90;;;;;;5097632;28;20059;-82
2023/04/22 00:44:23;;;;;;;4.55;2.38;;;5.40;99.90;;;;;;5097899;28;20498;-82
2023/04/22 00:46:49;;;;;;;3.28;1.90;;;5.30;99.90;;;;;;5098382;28;20032;-82
2023/04/22 00:49:16;;;;;;;3.35;1.70;;;5.20;99.90;;;;;;5115841;28;20043;-82
2023/04/22 00:51:41;;;;;;;2.65;1.45;;;5.10;99.90;;;;;;5098216;28;20432;-82
2023/04/22 00:54:07;;;;;;;2.83;1.35;;;5.00;99.90;;;;;;5080381;28;20085;-82
2023/04/22 00:56:35;;;;;;;2.75;1.30;;;5.00;99.90;;;;;;5115044;28;20035;-83
2023/04/22 00:59:01;;;;;;;1.98;1.20;;;4.90;99.90;;;;;;5080616;28;20032;-83
2023/04/22 01:01:28;;;;;;;2.08;1.20;;;4.90;99.90;;;;;;5077860;28;20070;-82
2023/04/22 01:03:55;;;;;;;2.15;1.10;;;4.90;99.90;;;;;;5110765;28;20084;-83
2023/04/22 01:06:22;;;;;;;2.03;1.25;;;4.90;99.90;;;;;;5098745;28;20032;-82
2023/04/22 01:08:48;;;;;;;2.75;1.67;;;4.90;99.90;;;;;;5095970;28;20101;-82
2023/04/22 01:11:14;;;;;;;3.28;1.70;;;4.90;99.90;;;;;;5083759;28;20518;-82
2023/04/22 01:13:40;;;;;;;3.50;1.60;;;4.80;99.90;;;;;;5093853;28;20046;-82
2023/04/22 01:16:08;;;;;;;2.95;1.70;;;4.60;99.90;;;;;;5096814;28;20035;-82
2023/04/22 01:18:37;;;;;;;3.95;1.77;;;4.50;99.90;;;;;;5115357;28;20036;-83
2023/04/22 01:21:03;;;;;;;3.08;1.70;;;4.40;99.90;;;;;;5112846;28;20042;-82
2023/04/22 01:23:29;;;;;;;2.67;1.40;;;4.30;99.90;;;;;;5096138;28;20062;-82
2023/04/22 01:25:56;;;;;;;3.75;1.67;;;4.30;99.90;;;;;;5093993;28;20556;-82
2023/04/22 01:28:23;;;;;;;3.70;1.63;;;4.30;99.90;;;;;;5096946;28;20131;-82
2023/04/22 01:30:49;;;;;;;3.63;1.77;;;4.40;99.90;;;;;;5084177;28;20543;-82
2023/04/22 01:33:15;;;;;;;2.22;1.48;;;4.40;99.90;;;;;;5114148;28;20043;-83
2023/04/22 01:35:41;;;;;;;3.42;1.48;;;4.40;99.90;;;;;;5097258;28;20374;-82
2023/04/22 01:38:09;;;;;;;2.65;1.40;;;4.40;99.90;;;;;;5115661;28;20049;-82
2023/04/22 01:40:35;;;;;;;2.88;1.45;;;4.40;99.90;;;;;;5092798;28;20043;-82
2023/04/22 01:43:02;;;;;;;3.85;2.00;;;4.40;99.90;;;;;;5094862;28;20028;-80
2023/04/22 01:45:28;;;;;;;2.53;1.77;;;4.40;99.90;;;;;;5074171;28;20044;-80
2023/04/22 01:47:54;;;;;;;3.20;2.20;;;4.40;99.90;;;;;;5076894;28;20032;-80
2023/04/22 01:50:21;;;;;;;3.83;2.30;;;4.40;99.90;;;;;;5070701;28;20126;-80
2023/04/22 01:52:47;;;;;;;4.38;2.90;;;4.40;99.90;;;;;;5097179;28;20397;-80
2023/04/22 01:55:13;;;;;;;4.82;3.03;;;4.40;99.90;;;;;;5117511;28;20028;-80
2023/04/22 01:57:39;;;;;;;7.25;4.25;;;4.40;99.90;;;;;;5080691;28;20046;-80
2023/04/22 02:00:07;;;;;;;7.85;4.50;;;4.40;99.90;;;;;;5085996;28;20119;-80
2023/04/22 02:02:33;;;;;;;8.27;5.10;;;4.40;99.90;;;;;;5115459;28;20024;-80
2023/04/22 02:04:59;;;;;;;8.13;4.60;;;4.40;99.90;;;;;;5063782;28;20036;-79
2023/04/22 02:07:27;;;;;;;6.25;2.92;;;4.40;99.90;;;;;;5080441;28;20043;-79
2023/04/22 02:09:53;;;;;;;3.00;1.70;;;4.40;99.90;;;;;;5098434;28;20444;-79
2023/04/22 02:12:19;;;;;;;2.80;1.50;;;4.40;99.90;;;;;;5080546;28;20069;-79
2023/04/22 02:14:44;;;;;;;2.58;1.50;;;4.30;99.90;;;;;;5098281;28;20105;-79
2023/04/22 02:17:10;;;;;;;2.42;1.23;;;4.20;99.90;;;;;;5098527;28;20119;-79
2023/04/22 02:19:36;;;;;;;2.50;1.20;;;4.20;99.90;;;;;;5080298;28;20036;-79
2023/04/22 02:22:02;;;;;;;2.58;1.30;;;4.10;99.90;;;;;;5063656;28;20032;-79
2023/04/22 02:24:27;;;;;;;2.63;1.30;;;4.10;99.90;;;;;;5080521;28;20040;-79
2023/04/22 02:26:53;;;;;;;2.33;1.50;;;4.10;99.90;;;;;;5063282;28;20059;-80
2023/04/22 02:29:18;;;;;;;2.33;1.30;;;4.10;99.90;;;;;;5063611;28;20062;-79
2023/04/22 02:31:44;;;;;;;2.30;1.25;;;4.10;99.90;;;;;;5080549;28;20449;-79
2023/04/22 02:34:10;;;;;;;2.70;1.23;;;4.10;99.90;;;;;;5068302;28;20051;-80
2023/04/22 02:36:35;;;;;;;2.30;1.30;;;4.10;99.90;;;;;;5063099;28;20036;-79
2023/04/22 02:39:03;;;;;;;2.50;1.55;;;4.00;99.90;;;;;;5100136;28;20505;-80
2023/04/22 02:41:29;;;;;;;2.00;1.23;;;4.00;99.90;;;;;;5091144;28;20035;-79
2023/04/22 02:43:54;;;;;;;2.33;1.42;;;4.00;99.90;;;;;;5099700;28;20036;-79
2023/04/22 02:46:20;;;;;;;2.95;1.80;;;4.00;99.90;;;;;;5099941;28;20028;-79
2023/04/22 02:48:46;;;;;;;2.30;1.30;;;3.90;99.90;;;;;;5083421;28;20032;-80
2023/04/22 02:51:11;;;;;;;3.40;1.45;;;3.90;99.90;;;;;;5118642;28;20106;-79
2023/04/22 02:53:37;;;;;;;2.65;1.38;;;3.80;99.90;;;;;;5085608;28;20118;-79
2023/04/22 02:56:04;;;;;;;2.20;1.38;;;3.70;99.90;;;;;;5084920;28;20125;-79
2023/04/22 02:58:30;;;;;;;1.92;1.10;;;3.60;99.90;;;;;;5081668;28;20449;-80
2023/04/22 03:00:56;;;;;;;2.92;1.45;;;3.60;99.90;;;;;;5097169;28;20028;-80
2023/04/22 03:03:22;;;;;;;2.92;1.45;;;3.60;99.90;;;;;;5078500;28;20494;-80
2023/04/22 03:05:48;;;;;;;2.53;1.52;;;3.50;99.90;;;;;;5077294;28;20040;-79
2023/04/22 03:08:14;;;;;;;4.10;1.65;;;3.60;99.90;;;;;;5061832;28;20401;-80
2023/04/22 03:10:40;;;;;;;3.85;1.60;;;3.60;99.90;;;;;;5078506;28;20031;-79
2023/04/22 03:13:05;;;;;;;4.00;1.48;;;3.50;99.90;;;;;;5078491;28;20036;-79
2023/04/22 03:15:31;;;;;;;4.43;1.38;;;3.60;99.90;;;;;;5061428;28;20040;-79
2023/04/22 03:17:57;;;;;;;2.35;1.33;;;3.60;99.90;;;;;;5078186;28;20024;-79
2023/04/22 03:20:22;;;;;;;2.28;1.40;;;3.60;99.90;;;;;;5078382;28;20028;-79
2023/04/22 03:22:48;;;;;;;2.97;1.85;;;3.60;99.90;;;;;;5096163;28;20035;-79
2023/04/22 03:25:14;;;;;;;3.28;1.83;;;3.60;99.90;;;;;;5096320;28;20028;-80
2023/04/22 03:27:39;;;;;;;3.80;2.65;;;3.70;99.90;;;;;;5096156;28;20424;-80
2023/04/22 03:30:06;;;;;;;3.13;1.77;;;3.70;99.90;;;;;;5077807;28;20067;-79
2023/04/22 03:32:32;;;;;;;3.67;1.80;;;3.70;99.90;;;;;;5096197;28;20037;-79
2023/04/22 03:34:57;;;;;;;3.53;1.70;;;3.70;99.90;;;;;;5061105;28;20044;-79
2023/04/22 03:37:23;;;;;;;2.03;1.25;;;3.60;99.90;;;;;;5061351;28;20036;-79
2023/04/22 03:39:49;;;;;;;3.28;1.40;;;3.60;99.90;;;;;;5061420;28;20070;-79
2023/04/22 03:42:15;;;;;;;2.42;1.35;;;3.60;99.90;;;;;;5096471;28;20028;-79
2023/04/22 03:44:41;;;;;;;2.58;1.27;;;3.50;99.90;;;;;;5095910;28;20038;-79
2023/04/22 03:47:06;;;;;;;2.42;1.30;;;3.50;99.90;;;;;;5061074;28;20036;-79
2023/04/22 03:49:32;;;;;;;2.83;1.40;;;3.50;99.90;;;;;;5095981;28;20032;-80
2023/04/22 03:51:58;;;;;;;2.97;1.77;;;3.40;99.90;;;;;;5078004;28;20477;-79
2023/04/22 03:54:25;;;;;;;8.23;3.92;;;3.30;99.90;;;;;;5078104;28;20498;-80
2023/04/22 03:56:51;;;;;;;9.45;5.05;;;3.10;99.90;;;;;;5080791;28;20027;-80
2023/04/22 03:59:17;;;;;;;10.35;5.25;;;3.10;99.90;;;;;;5080935;28;20507;-80
2023/04/22 04:01:45;;;;;;;10.50;4.80;;;3.00;99.90;;;;;;5097943;28;20027;-79
2023/04/22 04:04:11;;;;;;;6.47;3.28;;;3.10;99.90;;;;;;5081625;28;20039;-80
2023/04/22 04:06:37;;;;;;;5.93;2.80;;;3.10;99.90;;;;;;5080912;28;20042;-79
2023/04/22 04:09:03;;;;;;;3.97;2.22;;;3.10;99.90;;;;;;5115794;28;20040;-80
2023/04/22 04:11:29;;;;;;;2.85;1.42;;;3.10;99.90;;;;;;5115680;28;20039;-79
2023/04/22 04:13:55;;;;;;;2.53;1.58;;;3.10;99.90;;;;;;5080354;28;20401;-80
2023/04/22 04:16:21;;;;;;;2.45;1.50;;;3.00;99.90;;;;;;5080258;28;20035;-80
2023/04/22 04:18:50;;;;;;;4.07;1.90;;;3.00;99.90;;;;;;5115954;28;20466;-80
2023/04/22 04:21:15;;;;;;;22.85;7.80;;;3.00;99.90;;;;;;5115875;28;20032;-82
2023/04/22 04:23:41;;;;;;;23.83;10.85;;;2.90;99.90;;;;;;5080667;28;20541;-81
2023/04/22 04:26:07;;;;;;;30.70;12.85;;;2.90;99.90;;;;;;5115438;28;20031;-82
2023/04/22 04:28:33;;;;;;;25.63;10.65;;;2.90;99.90;;;;;;5076931;28;20032;-79
2023/04/22 04:30:59;;;;;;;13.10;6.20;;;2.90;99.90;;;;;;5076914;28;20055;-77
2023/04/22 04:33:26;;;;;;;5.25;2.60;;;2.90;99.90;;;;;;5076282;28;20052;-77
2023/04/22 04:35:52;;;;;;;4.13;2.15;;;3.00;99.90;;;;;;5094700;28;20028;-77
2023/04/22 04:38:18;;;;;;;6.50;1.58;;;3.00;99.90;;;;;;5076049;28;20078;-77
2023/04/22 04:40:44;;;;;;;2.53;1.60;;;3.00;99.90;;;;;;5076406;28;20433;-77
2023/04/22 04:43:11;;;;;;;4.35;1.50;;;3.00;99.90;;;;;;5076273;28;20028;-77
2023/04/22 04:45:38;;;;;;;2.70;1.52;;;3.00;99.90;;;;;;5076195;28;20051;-77
2023/04/22 04:48:07;;;;;;;3.10;1.63;;;3.00;99.90;;;;;;5094177;28;20045;-78
2023/04/22 04:50:33;;;;;;;2.60;1.48;;;3.10;99.90;;;;;;5076025;28;20036;-77
2023/04/22 04:52:59;;;;;;;3.15;1.60;;;3.10;99.90;;;;;;5094207;28;20036;-77
2023/04/22 04:55:25;;;;;;;2.90;1.40;;;3.00;99.90;;;;;;5094232;28;20051;-77
2023/04/22 04:57:50;;;;;;;5.82;2.58;;;2.90;99.90;;;;;;5063710;28;20067;-77
2023/04/22 05:00:16;;;;;;;6.13;3.53;;;2.90;99.90;;;;;;5080734;28;20032;-77
2023/04/22 05:02:42;;;;;;;5.63;3.38;;;2.90;99.90;;;;;;5112599;28;20059;-78
2023/04/22 05:05:08;;;;;;;4.38;2.45;;;2.90;99.90;;;;;;5077887;28;20047;-77
2023/04/22 05:07:34;;;;;;;2.45;1.77;;;2.90;99.90;;;;;;5085758;28;20042;-77
2023/04/22 05:10:00;;;;;;;3.75;1.65;;;2.80;99.90;;;;;;5096382;28;20032;-77
2023/04/22 05:12:26;;;;;;;3.00;1.70;;;2.80;99.90;;;;;;5084796;28;20044;-77
2023/04/22 05:14:52;;;;;;;3.63;1.90;;;2.90;99.90;;;;;;5093674;28;20440;-77
2023/04/22 05:17:18;;;;;;;4.57;2.17;;;2.90;99.90;;;;;;5059174;28;20036;-77
2023/04/22 05:19:44;;;;;;;2.47;1.75;;;2.90;99.90;;;;;;5093713;28;20032;-77
2023/04/22 05:22:10;;;;;;;4.32;2.10;;;3.00;99.90;;;;;;5076014;28;20077;-77
2023/04/22 05:24:36;;;;;;;2.72;1.52;;;3.00;99.90;;;;;;5060534;28;20035;-78
2023/04/22 05:27:02;;;;;;;3.55;1.70;;;3.00;99.90;;;;;;5104683;28;20062;-77
2023/04/22 05:29:28;;;;;;;3.05;1.70;;;3.10;99.90;;;;;;5096408;28;20449;-77
2023/04/22 05:31:54;;;;;;;3.50;1.83;;;3.10;99.90;;;;;;5116377;28;20031;-77
2023/04/22 05:34:19;;;;;;;2.42;1.55;;;3.20;99.90;;;;;;5098213;28;20036;-77
2023/04/22 05:36:45;;;;;;;3.60;2.08;;;3.20;99.90;;;;;;5080073;28;20482;-77
2023/04/22 05:39:11;;;;;;;3.42;1.80;;;3.30;99.90;;;;;;5089163;28;20024;-77
2023/04/22 05:41:37;;;;;;;3.83;2.20;;;3.40;99.90;;;;;;5079227;28;20071;-77
2023/04/22 05:44:03;;;;;;;3.63;1.88;;;3.50;99.90;;;;;;5110265;28;20055;-78
2023/04/22 05:46:29;;;;;;;4.18;2.13;;;3.50;99.90;;;;;;5094682;28;20416;-77
2023/04/22 05:48:55;;;;;;;3.20;2.10;;;3.60;99.90;;;;;;5087549;28;20032;-79
2023/04/22 05:51:22;;;;;;;3.58;1.73;;;3.70;99.90;;;;;;5098386;28;20042;-79
2023/04/22 05:53:48;;;;;;;4.40;2.00;;;3.80;99.90;;;;;;5117607;28;20077;-78
2023/04/22 05:56:14;;;;;;;2.78;1.70;;;3.80;99.90;;;;;;5098872;28;20104;-78
2023/04/22 05:58:40;;;;;;;3.38;1.63;;;3.90;99.90;;;;;;5073643;28;20063;-77
2023/04/22 06:01:05;;;;;;;3.05;1.73;;;4.00;99.90;;;;;;5100200;28;20028;-77
2023/04/22 06:03:31;;;;;;;4.65;1.92;;;4.10;99.90;;;;;;5079444;28;20032;-77
2023/04/22 06:05:57;;;;;;;3.65;1.88;;;4.20;99.90;;;;;;5095380;28;20721;-79
2023/04/22 06:08:22;;;;;;;3.65;2.13;;;4.30;99.90;;;;;;5117928;28;20385;-78
2023/04/22 06:10:49;;;;;;;3.58;1.92;;;4.40;99.90;;;;;;5099504;28;20071;-77
2023/04/22 06:13:14;;;;;;;4.20;2.03;;;4.60;99.90;;;;;;5099337;28;20546;-77
2023/04/22 06:15:40;;;;;;;3.28;1.95;;;4.70;99.90;;;;;;5112375;28;20040;-78
2023/04/22 06:18:06;;;;;;;2.97;1.58;;;4.80;99.90;;;;;;5105508;28;20034;-78
2023/04/22 06:20:31;;;;;;;3.70;1.95;;;4.90;99.90;;;;;;5095782;28;20481;-78
2023/04/22 06:22:58;;;;;;;5.03;2.00;;;5.00;99.90;;;;;;5084025;28;20366;-77
2023/04/22 06:25:23;;;;;;;3.38;1.83;;;5.10;99.90;;;;;;5110665;28;20032;-77
2023/04/22 06:27:49;;;;;;;2.95;2.20;;;5.20;99.90;;;;;;5094231;28;20126;-77
2023/04/22 06:30:15;;;;;;;3.47;2.10;;;5.30;99.90;;;;;;5079137;28;20039;-77
2023/04/22 06:32:41;;;;;;;4.47;2.10;;;5.40;99.90;;;;;;5093669;28;20097;-77
2023/04/22 06:35:07;;;;;;;4.68;2.40;;;5.50;99.90;;;;;;5101352;28;20043;-79
2023/04/22 06:37:33;;;;;;;6.07;2.75;;;5.60;99.90;;;;;;5112136;28;20062;-78
2023/04/22 06:39:58;;;;;;;4.78;2.70;;;5.80;99.90;;;;;;5062332;28;20040;-78
2023/04/22 06:42:24;;;;;;;5.13;2.53;;;5.90;99.90;;;;;;5065208;28;20511;-77
2023/04/22 06:44:50;;;;;;;4.15;2.45;;;6.10;99.90;;;;;;5095155;28;20051;-77
2023/04/22 06:47:16;;;;;;;4.55;2.67;;;6.20;99.90;;;;;;5090030;28;20047;-77
2023/04/22 06:49:43;;;;;;;6.47;3.20;;;6.40;99.90;;;;;;5079001;28;20040;-78
2023/04/22 06:52:09;;;;;;;6.28;3.22;;;6.50;99.90;;;;;;5099236;28;20052;-78
2023/04/22 06:54:35;;;;;;;5.03;3.28;;;6.60;99.90;;;;;;5112081;28;20082;-78
2023/04/22 06:57:01;;;;;;;6.32;4.15;;;6.80;99.90;;;;;;5077912;28;20413;-78
2023/04/22 06:59:26;;;;;;;7.25;4.85;;;7.00;99.90;;;;;;5097828;28;20039;-77
2023/04/22 07:01:52;;;;;;;7.10;5.10;;;7.20;99.90;;;;;;5082862;28;20039;-77
2023/04/22 07:04:18;;;;;;;9.07;4.68;;;7.30;99.90;;;;;;5093227;28;20119;-77
2023/04/22 07:06:44;;;;;;;5.35;4.13;;;7.50;99.90;;;;;;5107248;28;20036;-77
2023/04/22 07:09:09;;;;;;;6.43;4.57;;;7.70;99.90;;;;;;5098848;28;20028;-77
2023/04/22 07:11:35;;;;;;;11.85;4.55;;;7.80;99.90;;;;;;5098837;28;20055;-77
2023/04/22 07:14:01;;;;;;;5.28;4.15;;;8.00;99.90;;;;;;5097492;28;20086;-78
2023/04/22 07:16:27;;;;;;;7.45;5.30;;;8.30;99.90;;;;;;5099063;28;20035;-77
2023/04/22 07:18:53;;;;;;;8.30;6.05;;;8.40;99.90;;;;;;5117737;28;20020;-77
2023/04/22 07:21:19;;;;;;;8.73;5.85;;;8.60;99.90;;;;;;5116858;28;20050;-77
2023/04/22 07:23:44;;;;;;;8.35;5.88;;;8.80;99.90;;;;;;5116155;28;20110;-78
2023/04/22 07:26:10;;;;;;;8.30;6.00;;;8.90;99.90;;;;;;5082364;28;20032;-78
2023/04/22 07:28:36;;;;;;;7.80;5.90;;;9.10;99.90;;;;;;5099138;28;20081;-78
2023/04/22 07:31:02;;;;;;;9.48;5.57;;;9.30;99.90;;;;;;5098340;28;20043;-77
2023/04/22 07:33:27;;;;;;;6.95;5.10;;;9.40;99.90;;;;;;5116336;28;20031;-77
2023/04/22 07:35:53;;;;;;;6.22;4.40;;;9.60;99.90;;;;;;5098989;28;20512;-77
2023/04/22 07:38:19;;;;;;;5.25;3.33;;;9.70;99.90;;;;;;5096242;28;20390;-77
2023/04/22 07:40:45;;;;;;;6.97;3.65;;;9.90;99.90;;;;;;5096846;28;20481;-77
2023/04/22 07:43:11;;;;;;;4.60;2.90;;;10.00;99.90;;;;;;5078156;28;20067;-77
2023/04/22 07:45:36;;;;;;;3.95;2.83;;;10.20;99.90;;;;;;5096230;28;20048;-77
2023/04/22 07:48:03;;;;;;;6.50;2.90;;;10.40;99.90;;;;;;5078452;28;20504;-78
2023/04/22 07:50:28;;;;;;;8.60;2.53;;;10.50;99.90;;;;;;5078366;28;20040;-77
2023/04/22 07:52:54;;;;;;;2.95;1.85;;;10.70;99.90;;;;;;5077391;28;20074;-77
2023/04/22 07:55:20;;;;;;;3.35;2.00;;;10.80;99.90;;;;;;5104515;28;20119;-78
2023/04/22 07:57:46;;;;;;;8.40;3.08;;;11.00;99.90;;;;;;5064167;28;20044;-78
2023/04/22 08:00:13;;;;;;;10.35;3.60;;;11.10;99.90;;;;;;5077772;28;20032;-78
2023/04/22 08:02:39;;;;;;;5.97;3.20;;;11.20;99.90;;;;;;5096128;28;20031;-78
2023/04/22 08:05:06;;;;;;;5.72;2.30;;;11.40;99.90;;;;;;5088728;28;20043;-78
2023/04/22 08:07:31;;;;;;;5.93;2.88;;;11.50;99.90;;;;;;5098551;28;20039;-77
2023/04/22 08:09:57;;;;;;;6.78;3.20;;;11.70;99.90;;;;;;5097962;28;20134;-77
2023/04/22 08:12:23;;;;;;;6.35;2.60;;;11.80;99.90;;;;;;5098388;28;20031;-78
2023/04/22 08:14:49;;;;;;;6.05;2.05;;;12.00;99.90;;;;;;5107717;28;20036;-78
2023/04/22 08:17:20;;;;;;;2.80;1.70;;;12.20;99.90;;;;;;5072190;28;20043;-77
2023/04/22 08:19:46;;;;;;;;;;;12.40;99.90;;;;;;5097095;28;20036;-78
2023/04/22 08:22:12;;;;;;;6.35;2.70;;;12.60;99.90;;;;;;5113549;28;19907;-78
2023/04/22 08:24:38;;;;;;;4.40;2.50;;;12.80;99.90;;;;;;5063303;28;20063;-78
2023/04/22 08:27:04;;;;;;;5.55;2.25;;;12.90;99.90;;;;;;5082282;28;20123;-77
2023/04/22 08:29:29;;;;;;;3.58;1.50;;;13.00;99.90;;;;;;5097586;28;20404;-78
2023/04/22 08:31:55;;;;;;;8.27;3.08;;;13.10;99.90;;;;;;5097418;28;20048;-78
2023/04/22 08:34:21;;;;;;;7.18;1.40;;;13.30;99.90;;;;;;5063174;28;20043;-75
2023/04/22 08:36:46;;;;;;;4.60;1.60;;;13.40;99.90;;;;;;5096757;28;20066;-75
2023/04/22 08:39:12;;;;;;;3.80;1.40;;;13.50;99.90;;;;;;5114625;28;20509;-75
2023/04/22 08:41:38;;;;;;;4.35;1.77;;;13.60;99.90;;;;;;5094730;27;20039;-77
2023/04/22 08:44:04;;;;;;;4.68;1.60;;;13.70;99.80;;;;;;5114037;27;20114;-76
2023/04/22 08:46:30;;;;;;;5.40;1.20;;;13.80;99.90;;;;;;5114144;28;20043;-75
2023/04/22 08:49:02;;;;;;;2.08;1.00;;;14.00;97.70;;;;;;5079612;28;20046;-75
2023/04/22 08:51:30;;;;;;;2.33;1.13;;;14.20;96.10;;;;;;5114755;28;20054;-75
2023/04/22 08:53:56;;;;;;;3.63;1.63;;;14.30;95.50;;;;;;5096326;28;20036;-75
2023/04/22 08:56:24;;;;;;;4.07;1.88;;;14.50;95.50;;;;;;5097050;28;20493;-75
2023/04/22 08:58:51;;;;;;;5.38;2.10;;;14.60;95.10;;;;;;5114455;28;20441;-74
2023/04/22 09:01:17;;;;;;;4.75;1.98;;;14.80;95.10;;;;;;5114458;28;20065;-75
2023/04/22 09:03:44;;;;;;;2.72;1.50;;;15.00;93.90;;;;;;5096438;28;20038;-75
2023/04/22 09:06:10;;;;;;;5.07;1.67;;;15.10;93.80;;;;;;5096511;28;20039;-75
2023/04/22 09:08:37;;;;;;;10.95;2.90;;;15.30;94.00;;;;;;5096341;28;20411;-75
2023/04/22 09:11:03;;;;;;;2.50;1.40;;;15.50;94.40;;;;;;5116282;28;20032;-75
2023/04/22 09:13:29;;;;;;;6.22;2.55;;;15.60;92.50;;;;;;5116944;28;20054;-75
2023/04/22 09:15:54;;;;;;;2.17;1.30;;;15.80;91.40;;;;;;5108702;28;20110;-75
2023/04/22 09:18:20;;;;;;;8.50;3.13;;;15.80;90.00;;;;;;5102429;28;20058;-75
2023/04/22 09:20:47;;;;;;;4.78;1.80;;;16.00;89.70;;;;;;5098774;28;20032;-75
2023/04/22 09:23:13;;;;;;;6.32;2.35;;;16.10;88.50;;;;;;5094684;28;20367;-75
2023/04/22 09:25:40;;;;;;;3.40;1.10;;;16.20;84.00;;;;;;5104015;28;20085;-75
2023/04/22 09:28:11;;;;;;;2.97;0.90;;;16.40;83.80;;;;;;5094793;28;20385;-75
2023/04/22 09:30:37;;;;;;;1.35;0.75;;;16.50;81.60;;;;;;5076834;28;20123;-75
2023/04/22 09:33:05;;;;;;;1.50;0.63;;;16.60;79.60;;;;;;5076418;28;20499;-75
2023/04/22 09:35:39;;;;;;;1.73;0.70;;;16.70;77.50;;;;;;5095499;28;20024;-75
2023/04/22 09:38:07;;;;;;;6.22;1.88;;;16.80;78.60;;;;;;5094364;28;20028;-75
2023/04/22 09:40:33;;;;;;;4.60;1.70;;;17.00;81.60;;;;;;5096151;28;20381;-75
2023/04/22 09:43:01;;;;;;;1.60;0.70;;;17.20;80.30;;;;;;5109076;28;20450;-75
2023/04/22 09:45:37;;;;;;;1.63;0.75;;;17.30;76.40;;;;;;5092356;28;20064;-75
2023/04/22 09:48:09;;;;;;;2.30;0.80;;;17.50;74.10;;;;;;5094232;28;20035;-76
2023/04/22 09:50:43;;;;;;;4.75;0.80;;;17.60;74.40;;;;;;5094008;28;20198;-75
2023/04/22 09:53:11;;;;;;;1.70;0.68;;;17.80;72.70;;;;;;5093808;28;20493;-75
2023/04/22 09:55:40;;;;;;;1.17;0.47;;;17.90;70.30;;;;;;5077925;28;20082;-76
2023/04/22 09:58:13;;;;;;;1.00;0.50;;;17.90;63.20;;;;;;5086908;28;20112;-75
2023/04/22 10:00:43;;;;;;;3.03;0.63;;;18.00;66.80;;;;;;5106319;28;20366;-75
2023/04/22 10:03:09;;;;;;;1.67;1.10;;;18.10;66.50;;;;;;5093862;28;20374;-76
2023/04/22 10:05:36;;;;;;;1.70;0.90;;;18.20;67.50;;;;;;5091899;28;20304;-75
2023/04/22 10:08:08;;;;;;;1.70;0.82;;;18.40;67.70;;;;;;5092336;28;20405;-75
2023/04/22 10:10:36;;;;;;;1.92;0.82;;;18.50;65.60;;;;;;5092559;28;20028;-75
2023/04/22 10:13:03;;;;;;;1.33;0.77;;;18.70;67.80;;;;;;5101848;28;20044;-75
2023/04/22 10:15:35;;;;;;;1.50;0.80;;;18.80;65.50;;;;;;5107060;28;20030;-75
2023/04/22 10:18:03;;;;;;;0.80;0.60;;;18.90;62.60;;;;;;5112686;28;20032;-75
2023/04/22 10:20:32;;;;;;;1.55;0.70;;;19.10;64.60;;;;;;5105609;28;20124;-75
2023/04/22 10:22:58;;;;;;;1.75;0.85;;;19.20;65.20;;;;;;5103700;28;20085;-75
2023/04/22 10:25:25;;;;;;;1.40;0.73;;;19.30;64.00;;;;;;5106044;28;20031;-75
2023/04/22 10:28:04;;;;;;;1.10;0.57;;;19.30;61.70;;;;;;5115395;28;20549;-76
2023/04/22 10:30:33;;;;;;;1.10;0.57;;;19.40;60.70;;;;;;5102405;28;20127;-75
2023/04/22 10:33:22;;;;;;;1.70;0.70;;;19.40;59.50;;;;;;5101679;28;20047;-75
2023/04/22 10:36:07;;;;;;;0.88;0.50;;;19.50;60.20;;;;;;5095022;28;20028;-75
2023/04/22 10:38:37;;;;;;;1.13;0.52;;;19.80;60.50;;;;;;5096732;28;20476;-75
2023/04/22 10:41:03;;;;;;;0.55;0.40;;;19.90;56.00;;;;;;5108278;28;20042;-75
2023/04/22 10:43:45;;;;;;;2.13;0.52;;;20.10;55.60;;;;;;5117469;28;20028;-75
2023/04/22 10:46:30;;;;;;;1.23;0.60;;;20.20;55.70;;;;;;5117542;28;20031;-75
2023/04/22 10:48:56;;;;;;;1.20;0.68;;;20.40;61.20;;;;;;5099516;28;20077;-75
2023/04/22 10:51:42;;;;;;;0.77;0.57;;;20.50;57.40;;;;;;5103157;28;20028;-75
2023/04/22 10:54:27;;;;;;;1.15;0.43;;;20.50;55.40;;;;;;5097036;28;20028;-75
2023/04/22 10:57:17;;;;;;;1.38;0.60;;;20.60;55.50;;;;;;5078680;28;20028;-75
2023/04/22 10:59:54;;;;;;;0.98;0.47;;;20.70;56.80;;;;;;5078347;28;20031;-77
2023/04/22 11:02:21;;;;;;;1.08;0.60;;;20.80;55.00;;;;;;5079011;28;20028;-75
2023/04/22 11:04:47;;;;;;;1.33;0.82;;;20.90;52.60;;;;;;5096420;28;20039;-75
2023/04/22 11:07:21;;;;;;;1.58;0.90;;;20.90;55.10;;;;;;5096591;28;20032;-75
2023/04/22 11:09:50;;;;;;;6.22;1.08;;;21.00;54.80;;;;;;5096696;28;20036;-75
2023/04/22 11:12:37;;;;;;;2.13;0.70;;;21.00;56.60;;;;;;5096463;28;20039;-75
2023/04/22 11:15:16;;;;;;;1.15;0.77;;;21.10;54.40;;;;;;5096531;28;20032;-75
2023/04/22 11:17:46;;;;;;;1.45;0.80;;;21.20;53.40;;;;;;5078375;28;20040;-75
2023/04/22 11:20:17;;;;;;;2.15;0.77;;;21.30;53.70;;;;;;5098940;28;20063;-75
2023/04/22 11:22:44;;;;;;;1.80;0.60;;;21.40;53.90;;;;;;5117207;28;20042;-76
2023/04/22 11:25:10;;;;;;;0.88;0.50;;;21.50;55.70;;;;;;5117294;28;20039;-75
2023/04/22 11:27:38;;;;;;;1.40;0.50;;;21.70;52.00;;;;;;5116299;28;20031;-75
2023/04/22 11:30:11;;;;;;;1.30;0.60;;;21.70;49.70;;;;;;5117187;27;20085;-75
2023/04/22 11:32:38;;;;;;;1.95;0.90;;;21.70;50.00;;;;;;5122497;27;20055;-75
2023/04/22 11:35:07;;;;;;;1.20;0.70;;;21.60;51.80;;;;;;5117178;27;20393;-76
2023/04/22 11:37:50;;;;;;;1.02;0.60;;;21.70;52.80;;;;;;5132148;27;20026;-75
2023/04/22 11:40:37;;;;;;;1.42;0.80;;;21.80;53.90;;;;;;5126008;27;20031;-75
2023/04/22 11:43:05;;;;;;;1.20;0.70;;;21.70;53.30;;;;;;5104210;28;20552;-75
2023/04/22 11:45:32;;;;;;;0.93;0.40;;;21.70;54.60;;;;;;5117830;28;20035;-75
2023/04/22 11:48:00;;;;;;;1.65;0.65;;;21.80;48.00;;;;;;5117277;28;20115;-75
2023/04/22 11:50:28;;;;;;;1.25;0.50;;;21.90;51.30;;;;;;5119768;27;20085;-75
2023/04/22 11:52:55;;;;;;;1.42;0.52;;;21.90;49.90;;;;;;5106157;28;20065;-75
2023/04/22 11:55:21;;;;;;;1.92;0.60;;;21.90;45.60;;;;;;5115401;27;20031;-75
2023/04/22 11:57:58;;;;;;;2.25;0.60;;;21.90;48.20;;;;;;5110582;27;20036;-76
2023/04/22 12:00:32;;;;;;;2.50;0.80;;;22.00;47.20;;;;;;5107133;28;20024;-76
2023/04/22 12:03:11;;;;;;;1.23;0.60;;;22.00;48.90;;;;;;5087252;28;20028;-76
2023/04/22 12:05:42;;;;;;;1.23;0.60;;;22.00;47.10;;;;;;5114802;28;20550;-75
2023/04/22 12:08:17;;;;;;;0.98;0.55;;;22.10;46.20;;;;;;5095086;28;20044;-76
2023/04/22 12:10:46;;;;;;;2.50;1.48;;;22.30;45.60;;;;;;5096885;28;20039;-75
2023/04/22 12:13:27;;;;;;;5.68;3.22;;;22.30;45.60;;;;;;5115661;28;20039;-75
2023/04/22 12:15:56;;;;;;;2.65;1.20;;;22.10;46.90;;;;;;5115812;28;20107;-75
2023/04/22 12:18:33;;;;;;;10.43;5.63;;;21.90;46.50;;;;;;5115466;28;20473;-75
2023/04/22 12:21:02;;;;;;;3.42;1.50;;;21.90;49.30;;;;;;5115728;28;20469;-75
2023/04/22 12:23:29;;;;;;;4.38;2.83;;;21.80;46.60;;;;;;5115518;28;20028;-75
2023/04/22 12:25:54;;;;;;;2.92;1.23;;;21.90;50.30;;;;;;5115239;28;20040;-75
2023/04/22 12:28:21;;;;;;;1.27;0.70;;;22.10;49.20;;;;;;5099445;28;20102;-75
2023/04/22 12:30:46;;;;;;;3.05;0.80;;;22.20;47.90;;;;;;5094989;28;20402;-75
2023/04/22 12:33:12;;;;;;;1.40;0.70;;;22.40;46.90;;;;;;5076776;28;20097;-75
2023/04/22 12:35:38;;;;;;;1.77;0.70;;;22.60;48.80;;;;;;5094977;28;20371;-75
2023/04/22 12:38:03;;;;;;;3.35;0.80;;;22.80;50.00;;;;;;5094480;28;20024;-75
2023/04/22 12:40:29;;;;;;;1.92;0.70;;;23.00;48.20;;;;;;5094814;28;20093;-75
2023/04/22 12:42:55;;;;;;;1.33;0.60;;;23.20;44.70;;;;;;5076885;28;20036;-75
2023/04/22 12:45:21;;;;;;;2.05;0.80;;;23.20;46.20;;;;;;5076148;28;20508;-75
2023/04/22 12:47:48;;;;;;;2.15;0.65;;;23.20;49.40;;;;;;5094808;28;20570;-75
2023/04/22 12:50:14;;;;;;;1.98;0.80;;;23.00;48.10;;;;;;5077202;28;20111;-75
2023/04/22 12:52:40;;;;;;;1.60;0.68;;;23.00;48.90;;;;;;5094975;28;20074;-75